Time;durP1;ratioP1;P1;durP2;ratioP2;P2;SDS_P1;SDS_P2;PMS_P1;PMS_P2;Temp;Humidity;BMP_temperature;BMP_pressure;BME280_temperature;BME280_humidity;BME280_pressure;Samples;Min_cycle;Max_cycle;Signal;HPM_P1;HPM_P2
2021/05/04 00:01:10;;;;;;;;;;;14.30;68.30;;;;;;5054425;28;75015;-66
2021/05/04 00:03:36;;;;;;;;;;;14.30;68.40;;;;;;5054578;28;75031;-66
2021/05/04 00:06:02;;;;;;;;;;;14.30;68.30;;;;;;5052379;28;77722;-68
2021/05/04 00:08:27;;;;;;;;;;;14.20;68.40;;;;;;5053160;28;77966;-68
2021/05/04 00:10:53;;;;;;;;;;;14.20;68.40;;;;;;5054430;28;75480;-67
2021/05/04 00:13:19;;;;;;;;;;;14.20;68.40;;;;;;5052851;28;75347;-67
2021/05/04 00:15:44;;;;;;;;;;;14.20;68.60;;;;;;5054195;28;74610;-68
2021/05/04 00:18:10;;;;;;;;;;;14.20;68.70;;;;;;5054311;28;75804;-67
2021/05/04 00:20:36;;;;;;;;;;;14.20;68.70;;;;;;5052817;28;77596;-68
2021/05/04 00:23:01;;;;;;;;;;;14.10;68.60;;;;;;5052433;28;76875;-67
2021/05/04 00:25:27;;;;;;;;;;;14.00;68.60;;;;;;5054413;28;75408;-64
2021/05/04 00:27:52;;;;;;;;;;;13.90;68.90;;;;;;5053850;28;75731;-65
2021/05/04 00:30:18;;;;;;;;;;;14.00;69.30;;;;;;5054113;28;75880;-66
2021/05/04 00:32:44;;;;;;;;;;;13.90;69.30;;;;;;5054426;28;74623;-68
2021/05/04 00:35:10;;;;;;;;;;;13.90;69.50;;;;;;5054005;28;74600;-68
2021/05/04 00:37:35;;;;;;;;;;;13.80;69.70;;;;;;5052396;28;75509;-68
2021/05/04 00:40:02;;;;;;;;;;;13.80;69.90;;;;;;5052099;28;74726;-66
2021/05/04 00:42:27;;;;;;;;;;;13.80;69.90;;;;;;5051866;28;77409;-65
2021/05/04 00:44:53;;;;;;;;;;;13.80;70.20;;;;;;5086157;27;75462;-65
2021/05/04 00:47:19;;;;;;;;;;;13.60;70.10;;;;;;5053643;28;75135;-68
2021/05/04 00:49:44;;;;;;;;;;;13.60;70.50;;;;;;5053905;28;76089;-69
2021/05/04 00:52:10;;;;;;;;;;;13.60;70.80;;;;;;5051849;28;77381;-68
2021/05/04 00:54:36;;;;;;;;;;;13.60;70.90;;;;;;5052080;28;77846;-69
2021/05/04 00:57:02;;;;;;;;;;;13.60;71.20;;;;;;5052900;27;74365;-65
2021/05/04 00:59:28;;;;;;;;;;;13.60;71.30;;;;;;5053769;28;74448;-65
2021/05/04 01:01:54;;;;;;;;;;;13.50;71.20;;;;;;5051993;28;75627;-64
2021/05/04 01:04:20;;;;;;;;;;;13.50;71.30;;;;;;5051662;28;76477;-65
2021/05/04 01:06:46;;;;;;;;;;;13.50;71.40;;;;;;5051789;28;76334;-68
2021/05/04 01:09:15;;;;;;;;;;;13.40;71.40;;;;;;5051679;28;77818;-66
2021/05/04 01:11:42;;;;;;;;;;;13.40;71.90;;;;;;5052176;28;77026;-67
2021/05/04 01:14:08;;;;;;;;;;;13.40;71.90;;;;;;5051759;28;77116;-68
2021/05/04 01:16:33;;;;;;;;;;;13.40;72.00;;;;;;5053420;28;75074;-67
2021/05/04 01:18:59;;;;;;;;;;;13.40;72.00;;;;;;5053201;28;75278;-65
2021/05/04 01:21:24;;;;;;;;;;;13.30;71.50;;;;;;5053720;28;74636;-67
2021/05/04 01:23:50;;;;;;;;;;;13.30;71.10;;;;;;5051362;28;77142;-67
2021/05/04 01:26:15;;;;;;;;;;;13.20;70.70;;;;;;5053037;28;75206;-65
2021/05/04 01:28:41;;;;;;;;;;;13.20;70.60;;;;;;5053639;28;74497;-66
2021/05/04 01:31:07;;;;;;;;;;;13.10;70.10;;;;;;5051447;28;77469;-67
2021/05/04 01:33:32;;;;;;;;;;;13.10;70.10;;;;;;5053941;28;75183;-68
2021/05/04 01:35:58;;;;;;;;;;;12.90;70.00;;;;;;5053235;28;74949;-68
2021/05/04 01:38:24;;;;;;;;;;;12.90;70.10;;;;;;5051390;28;75234;-67
2021/05/04 01:40:49;;;;;;;;;;;12.90;70.00;;;;;;5051588;28;74692;-68
2021/05/04 01:43:15;;;;;;;;;;;12.80;70.20;;;;;;5052995;28;74605;-67
2021/05/04 01:45:40;;;;;;;;;;;12.70;70.10;;;;;;5053074;28;75255;-66
2021/05/04 01:48:06;;;;;;;;;;;12.60;70.20;;;;;;5051346;28;77888;-67
2021/05/04 01:50:32;;;;;;;;;;;12.60;70.40;;;;;;5051275;28;75356;-66
2021/05/04 01:52:57;;;;;;;;;;;12.60;70.60;;;;;;5052940;28;75085;-67
2021/05/04 01:55:23;;;;;;;;;;;12.60;70.60;;;;;;5052718;28;74595;-67
2021/05/04 01:57:48;;;;;;;;;;;12.50;70.60;;;;;;5051217;28;75379;-66
2021/05/04 02:00:15;;;;;;;;;;;12.60;70.70;;;;;;5050660;28;75658;-66
2021/05/04 02:02:41;;;;;;;;;;;12.50;70.70;;;;;;5050933;28;76580;-66
2021/05/04 02:05:07;;;;;;;;;;;12.60;70.90;;;;;;5052300;28;75095;-67
2021/05/04 02:07:33;;;;;;;;;;;12.60;70.90;;;;;;5050606;27;75200;-67
2021/05/04 02:09:58;;;;;;;;;;;12.50;70.90;;;;;;5052559;28;75218;-67
2021/05/04 02:12:24;;;;;;;;;;;12.50;71.00;;;;;;5050718;28;76620;-68
2021/05/04 02:14:50;;;;;;;;;;;12.50;71.20;;;;;;5051042;27;75445;-67
2021/05/04 02:17:16;;;;;;;;;;;12.50;71.30;;;;;;5052770;28;75084;-68
2021/05/04 02:19:41;;;;;;;;;;;12.50;71.30;;;;;;5050919;28;76585;-67
2021/05/04 02:22:07;;;;;;;;;;;12.50;71.40;;;;;;5052713;28;75131;-66
2021/05/04 02:24:32;;;;;;;;;;;12.50;71.40;;;;;;5052471;28;75386;-67
2021/05/04 02:26:58;;;;;;;;;;;12.40;71.40;;;;;;5050901;28;76278;-67
2021/05/04 02:29:24;;;;;;;;;;;12.40;71.40;;;;;;5052300;28;74419;-67
2021/05/04 02:31:49;;;;;;;;;;;12.40;71.50;;;;;;5052196;28;74847;-66
2021/05/04 02:34:15;;;;;;;;;;;12.40;71.60;;;;;;5050551;28;78371;-66
2021/05/04 02:36:41;;;;;;;;;;;12.40;71.70;;;;;;5050951;28;76863;-66
2021/05/04 02:39:09;;;;;;;;;;;12.30;71.70;;;;;;5050773;28;77521;-65
2021/05/04 02:41:35;;;;;;;;;;;12.40;71.70;;;;;;5050465;28;77661;-66
2021/05/04 02:44:01;;;;;;;;;;;12.30;71.80;;;;;;5052708;28;74455;-66
2021/05/04 02:46:29;;;;;;;;;;;12.30;71.70;;;;;;5050241;28;75405;-66
2021/05/04 02:48:55;;;;;;;;;;;12.30;71.70;;;;;;5050428;28;74557;-66
2021/05/04 02:51:21;;;;;;;;;;;12.20;71.80;;;;;;5052118;28;75124;-66
2021/05/04 02:53:46;;;;;;;;;;;12.20;71.80;;;;;;5050195;28;77179;-66
2021/05/04 02:56:12;;;;;;;;;;;12.20;71.90;;;;;;5052689;28;74497;-66
2021/05/04 02:58:38;;;;;;;;;;;12.20;71.70;;;;;;5050022;28;75719;-65
2021/05/04 03:01:04;;;;;;;;;;;12.20;71.50;;;;;;5052226;28;74475;-66
2021/05/04 03:03:29;;;;;;;;;;;12.20;71.50;;;;;;5050397;28;75766;-66
2021/05/04 03:05:55;;;;;;;;;;;12.20;71.40;;;;;;5050109;28;75416;-67
2021/05/04 03:08:21;;;;;;;;;;;12.20;71.60;;;;;;5052063;28;75126;-68
2021/05/04 03:10:47;;;;;;;;;;;12.10;71.70;;;;;;5050170;28;78084;-67
2021/05/04 03:13:12;;;;;;;;;;;12.10;71.80;;;;;;5050500;28;76957;-67
2021/05/04 03:15:38;;;;;;;;;;;12.00;71.70;;;;;;5049831;28;74616;-68
2021/05/04 03:18:03;;;;;;;;;;;12.00;71.60;;;;;;5050147;28;77307;-68
2021/05/04 03:20:29;;;;;;;;;;;11.90;71.90;;;;;;5054125;27;74978;-67
2021/05/04 03:22:55;;;;;;;;;;;11.90;72.00;;;;;;5055548;28;74481;-67
2021/05/04 03:25:20;;;;;;;;;;;11.90;72.20;;;;;;5055369;28;75121;-67
2021/05/04 03:27:46;;;;;;;;;;;11.90;72.10;;;;;;5053467;28;75256;-67
2021/05/04 03:30:12;;;;;;;;;;;11.90;72.00;;;;;;5055020;28;74776;-66
2021/05/04 03:32:40;;;;;;;;;;;11.90;72.10;;;;;;5054964;28;75383;-68
2021/05/04 03:35:09;;;;;;;;;;;11.90;72.00;;;;;;5053339;28;75429;-66
2021/05/04 03:37:35;;;;;;;;;;;11.70;72.10;;;;;;5053144;28;77497;-67
2021/05/04 03:40:01;;;;;;;;;;;11.70;72.30;;;;;;5053347;28;76414;-65
2021/05/04 03:42:26;;;;;;;;;;;11.80;72.30;;;;;;5054885;28;75014;-66
2021/05/04 03:44:52;;;;;;;;;;;11.70;72.20;;;;;;5053043;28;75101;-65
2021/05/04 03:47:18;;;;;;;;;;;11.70;72.20;;;;;;5054866;28;75012;-67
2021/05/04 03:49:43;;;;;;;;;;;11.70;72.20;;;;;;5053058;28;77138;-66
2021/05/04 03:52:09;;;;;;;;;;;11.70;72.20;;;;;;5055482;28;74541;-64
2021/05/04 03:54:34;;;;;;;;;;;11.70;72.40;;;;;;5053308;28;76363;-65
2021/05/04 03:57:00;;;;;;;;;;;11.60;72.50;;;;;;5054570;28;75249;-65
2021/05/04 03:59:25;;;;;;;;;;;11.60;72.60;;;;;;5054840;28;74930;-66
2021/05/04 04:01:51;;;;;;;;;;;11.60;72.60;;;;;;5052658;28;77601;-64
2021/05/04 04:04:18;;;;;;;;;;;11.60;72.50;;;;;;5054396;28;75253;-64
2021/05/04 04:06:44;;;;;;;;;;;11.60;72.60;;;;;;5052754;28;74681;-64
2021/05/04 04:09:09;;;;;;;;;;;11.60;72.50;;;;;;5053099;28;78232;-65
2021/05/04 04:11:36;;;;;;;;;;;11.60;72.60;;;;;;5054469;28;75240;-65
2021/05/04 04:14:02;;;;;;;;;;;11.60;72.70;;;;;;5054314;28;75191;-65
2021/05/04 04:16:27;;;;;;;;;;;11.60;72.50;;;;;;5052454;28;77144;-65
2021/05/04 04:18:53;;;;;;;;;;;11.60;72.40;;;;;;5054210;28;75089;-64
2021/05/04 04:21:19;;;;;;;;;;;11.60;72.50;;;;;;5052860;28;77218;-64
2021/05/04 04:23:44;;;;;;;;;;;11.50;72.60;;;;;;5052707;28;77774;-65
2021/05/04 04:26:10;;;;;;;;;;;11.60;72.70;;;;;;5052955;28;74796;-63
2021/05/04 04:28:35;;;;;;;;;;;11.50;72.80;;;;;;5054586;28;75162;-64
2021/05/04 04:31:01;;;;;;;;;;;11.50;72.90;;;;;;5041847;27;77276;-64
2021/05/04 04:33:27;;;;;;;;;;;11.50;72.70;;;;;;5048848;28;75241;-65
2021/05/04 04:35:52;;;;;;;;;;;11.50;72.70;;;;;;5046694;28;77373;-64
2021/05/04 04:38:19;;;;;;;;;;;11.50;72.60;;;;;;5048079;28;77129;-65
2021/05/04 04:40:45;;;;;;;;;;;11.40;72.50;;;;;;5033164;28;75224;-66
2021/05/04 04:43:11;;;;;;;;;;;11.40;72.50;;;;;;5046862;28;77564;-65
2021/05/04 04:45:36;;;;;;;;;;;11.40;72.50;;;;;;5048391;28;75711;-65
2021/05/04 04:48:02;;;;;;;;;;;11.40;72.50;;;;;;5065294;27;75356;-67
2021/05/04 04:50:28;;;;;;;;;;;11.40;72.40;;;;;;5065779;27;77638;-64
2021/05/04 04:52:54;;;;;;;;;;;11.30;72.40;;;;;;5033608;28;75056;-64
2021/05/04 04:55:20;;;;;;;;;;;11.30;72.30;;;;;;5034133;28;74392;-66
2021/05/04 04:57:46;;;;;;;;;;;11.30;72.30;;;;;;5033491;28;75296;-67
2021/05/04 05:00:12;;;;;;;;;;;11.30;72.40;;;;;;5065469;27;75717;-67
2021/05/04 05:02:37;;;;;;;;;;;11.20;72.40;;;;;;5033342;28;75116;-65
2021/05/04 05:05:03;;;;;;;;;;;11.30;72.50;;;;;;5048540;28;75594;-64
2021/05/04 05:07:29;;;;;;;;;;;11.30;72.40;;;;;;5033090;28;77010;-64
2021/05/04 05:09:54;;;;;;;;;;;11.20;72.30;;;;;;5033134;28;75064;-66
2021/05/04 05:12:20;;;;;;;;;;;11.20;72.40;;;;;;5048565;28;76893;-65
2021/05/04 05:14:46;;;;;;;;;;;11.10;72.40;;;;;;5065185;27;75420;-65
2021/05/04 05:17:11;;;;;;;;;;;11.10;72.40;;;;;;5033253;28;74596;-64
2021/05/04 05:19:37;;;;;;;;;;;11.10;72.20;;;;;;5033111;28;75082;-67
2021/05/04 05:22:03;;;;;;;;;;;11.00;72.40;;;;;;5048328;28;75512;-65
2021/05/04 05:24:29;;;;;;;;;;;11.10;72.60;;;;;;5048657;28;75480;-65
2021/05/04 05:26:55;;;;;;;;;;;11.00;72.70;;;;;;5064762;27;75369;-63
2021/05/04 05:29:20;;;;;;;;;;;11.10;72.70;;;;;;5033054;28;75472;-67
2021/05/04 05:31:46;;;;;;;;;;;11.10;72.60;;;;;;5031096;28;77502;-66
2021/05/04 05:34:12;;;;;;;;;;;11.10;72.40;;;;;;5044886;28;76179;-73
2021/05/04 05:36:38;;;;;;;;;;;11.10;72.40;;;;;;5048707;28;77118;-68
2021/05/04 05:39:04;;;;;;;;;;;11.10;72.30;;;;;;5048900;27;74667;-74
2021/05/04 05:41:29;;;;;;;;;;;11.10;72.10;;;;;;5051614;27;75888;-71
2021/05/04 05:43:55;;;;;;;;;;;11.10;72.10;;;;;;5050520;28;75155;-75
2021/05/04 05:46:22;;;;;;;;;;;11.20;72.00;;;;;;5052626;27;74938;-72
2021/05/04 05:48:47;;;;;;;;;;;11.20;72.10;;;;;;5053385;28;75196;-73
2021/05/04 05:51:13;;;;;;;;;;;11.30;72.20;;;;;;5051460;28;75352;-74
2021/05/04 05:53:39;;;;;;;;;;;11.30;71.90;;;;;;5044852;28;75140;-75
2021/05/04 05:56:05;;;;;;;;;;;11.30;71.60;;;;;;5051819;28;77992;-74
2021/05/04 05:58:30;;;;;;;;;;;11.30;71.30;;;;;;5051576;28;75021;-69
2021/05/04 06:00:56;;;;;;;;;;;11.20;71.30;;;;;;5051210;28;74717;-73
2021/05/04 06:03:22;;;;;;;;;;;11.20;71.20;;;;;;5050415;28;76794;-72
2021/05/04 06:05:49;;;;;;;;;;;11.20;71.20;;;;;;5052463;27;75165;-71
2021/05/04 06:08:15;;;;;;;;;;;11.20;71.30;;;;;;5051075;28;76621;-72
2021/05/04 06:10:40;;;;;;;;;;;11.20;71.10;;;;;;5052816;27;75213;-71
2021/05/04 06:13:06;;;;;;;;;;;11.20;71.00;;;;;;5050412;28;77243;-72
2021/05/04 06:15:32;;;;;;;;;;;11.20;71.00;;;;;;5050574;28;78637;-73
2021/05/04 06:17:58;;;;;;;;;;;11.20;71.00;;;;;;5052779;27;74481;-70
2021/05/04 06:20:24;;;;;;;;;;;11.20;71.20;;;;;;5050867;28;75626;-66
2021/05/04 06:22:50;;;;;;;;;;;11.20;71.00;;;;;;5052407;27;74467;-74
2021/05/04 06:25:16;;;;;;;;;;;11.30;71.00;;;;;;5050580;28;76694;-74
2021/05/04 06:27:41;;;;;;;;;;;11.40;70.90;;;;;;5050841;28;75537;-71
2021/05/04 06:30:08;;;;;;;;;;;11.40;70.80;;;;;;5049919;28;75593;-70
2021/05/04 06:32:34;;;;;;;;;;;11.50;70.60;;;;;;5050607;28;76504;-73
2021/05/04 06:34:59;;;;;;;;;;;11.50;70.30;;;;;;5048259;28;75493;-73
2021/05/04 06:37:25;;;;;;;;;;;11.50;70.20;;;;;;5048609;28;75634;-69
2021/05/04 06:39:51;;;;;;;;;;;11.40;70.10;;;;;;5050482;28;75750;-72
2021/05/04 06:42:17;;;;;;;;;;;11.50;70.50;;;;;;5052255;28;74528;-70
2021/05/04 06:44:42;;;;;;;;;;;11.60;70.20;;;;;;5049643;28;77180;-69
2021/05/04 06:47:08;;;;;;;;;;;11.70;70.10;;;;;;5050204;28;75206;-68
2021/05/04 06:49:33;;;;;;;;;;;11.70;70.00;;;;;;5051570;28;75651;-70
2021/05/04 06:51:59;;;;;;;;;;;11.90;70.00;;;;;;5052213;28;74754;-71
2021/05/04 06:54:25;;;;;;;;;;;11.90;69.70;;;;;;5050153;27;77764;-66
2021/05/04 06:56:51;;;;;;;;;;;12.00;69.40;;;;;;5053815;28;76451;-66
2021/05/04 06:59:17;;;;;;;;;;;12.10;69.30;;;;;;5055439;28;75102;-71
2021/05/04 07:01:42;;;;;;;;;;;12.10;69.00;;;;;;5055246;28;74619;-70
2021/05/04 07:04:08;;;;;;;;;;;12.20;69.10;;;;;;5054500;27;75126;-71
2021/05/04 07:06:33;;;;;;;;;;;12.20;69.10;;;;;;5054934;28;75189;-69
2021/05/04 07:09:00;;;;;;;;;;;12.30;69.00;;;;;;5052854;28;75397;-73
2021/05/04 07:11:25;;;;;;;;;;;12.40;68.80;;;;;;5054890;28;75005;-73
2021/05/04 07:13:51;;;;;;;;;;;12.50;68.70;;;;;;5054707;28;75813;-72
2021/05/04 07:16:17;;;;;;;;;;;12.60;68.60;;;;;;5053011;28;77454;-73
2021/05/04 07:18:42;;;;;;;;;;;12.80;68.10;;;;;;5054772;27;75575;-70
2021/05/04 07:21:09;;;;;;;;;;;12.90;67.50;;;;;;5050643;28;75990;-70
2021/05/04 07:23:38;;;;;;;;;;;13.00;67.50;;;;;;5051020;28;76262;-70
2021/05/04 07:26:04;;;;;;;;;;;13.10;67.50;;;;;;5053286;28;75278;-71
2021/05/04 07:28:30;;;;;;;;;;;13.20;67.30;;;;;;5055225;28;74546;-68
2021/05/04 07:30:55;;;;;;;;;;;13.20;67.10;;;;;;5054756;28;75113;-72
2021/05/04 07:33:21;;;;;;;;;;;13.30;66.90;;;;;;5054424;28;75815;-71
2021/05/04 07:35:48;;;;;;;;;;;13.40;66.50;;;;;;5052868;28;75383;-71
2021/05/04 07:38:15;;;;;;;;;;;13.50;66.50;;;;;;5053427;28;76355;-71
2021/05/04 07:40:40;;;;;;;;;;;13.60;65.80;;;;;;5055026;28;75087;-68
2021/05/04 07:43:06;;;;;;;;;;;13.50;65.70;;;;;;5054630;28;75165;-70
2021/05/04 07:45:32;;;;;;;;;;;13.60;65.90;;;;;;5052205;28;76142;-72
2021/05/04 07:47:59;;;;;;;;;;;13.70;66.00;;;;;;5052586;28;75965;-71
2021/05/04 07:50:25;;;;;;;;;;;13.70;66.00;;;;;;5052937;28;75368;-72
2021/05/04 07:52:51;;;;;;;;;;;13.90;65.50;;;;;;5053357;28;75115;-74
2021/05/04 07:55:16;;;;;;;;;;;13.90;65.20;;;;;;5052603;28;76952;-74
2021/05/04 07:57:42;;;;;;;;;;;14.00;65.10;;;;;;5052552;28;77359;-67
2021/05/04 08:00:09;;;;;;;;;;;14.10;65.30;;;;;;5052877;28;77419;-69
2021/05/04 08:02:34;;;;;;;;;;;14.20;65.10;;;;;;5053229;28;75859;-67
2021/05/04 08:05:00;;;;;;;;;;;14.30;64.30;;;;;;5053075;27;75031;-68
2021/05/04 08:07:25;;;;;;;;;;;14.40;64.10;;;;;;5052586;28;75157;-68
2021/05/04 08:09:51;;;;;;;;;;;14.40;64.00;;;;;;5054048;27;74477;-66
2021/05/04 08:12:17;;;;;;;;;;;14.50;63.80;;;;;;5052645;28;74729;-66
2021/05/04 08:14:44;;;;;;;;;;;14.50;64.00;;;;;;5053581;27;74563;-69
2021/05/04 08:17:16;;;;;;;;;;;14.60;64.00;;;;;;5053884;27;75485;-69
2021/05/04 08:19:42;;;;;;;;;;;14.70;64.10;;;;;;5053793;27;75149;-69
2021/05/04 08:22:07;;;;;;;;;;;14.90;64.00;;;;;;5052420;28;77849;-69
2021/05/04 08:24:36;;;;;;;;;;;15.20;63.30;;;;;;5050322;27;74899;-71
2021/05/04 08:27:02;;;;;;;;;;;15.40;62.90;;;;;;5049094;28;78107;-69
2021/05/04 08:29:28;;;;;;;;;;;15.60;62.40;;;;;;5050664;28;77506;-69
2021/05/04 08:31:53;;;;;;;;;;;15.80;61.10;;;;;;5050750;27;77664;-72
2021/05/04 08:34:21;;;;;;;;;;;15.80;61.20;;;;;;5051657;27;75602;-71
2021/05/04 08:36:47;;;;;;;;;;;15.80;61.70;;;;;;5051811;27;75198;-71
2021/05/04 08:39:13;;;;;;;;;;;15.90;61.60;;;;;;5053341;27;76188;-71
2021/05/04 08:41:41;;;;;;;;;;;16.10;61.20;;;;;;5050091;28;79047;-72
2021/05/04 08:44:07;;;;;;;;;;;16.20;60.50;;;;;;5051949;27;74610;-71
2021/05/04 08:46:35;;;;;;;;;;;16.20;60.60;;;;;;5047792;27;75231;-71
2021/05/04 08:49:03;;;;;;;;;;;16.20;60.40;;;;;;5050740;28;75233;-68
2021/05/04 08:51:29;;;;;;;;;;;16.20;60.80;;;;;;5050122;27;77586;-70
2021/05/04 08:53:55;;;;;;;;;;;16.30;60.60;;;;;;5049544;27;76302;-69
2021/05/04 08:56:20;;;;;;;;;;;16.40;60.30;;;;;;5049771;27;75362;-70
2021/05/04 08:58:46;;;;;;;;;;;16.40;60.10;;;;;;5049848;28;77498;-71
2021/05/04 09:01:11;;;;;;;;;;;16.40;59.80;;;;;;5049830;27;76033;-71
2021/05/04 09:03:49;;;;;;;;;;;16.40;59.90;;;;;;5051312;27;74965;-69
2021/05/04 09:06:21;;;;;;;;;;;16.50;60.50;;;;;;5050427;27;75233;-70
2021/05/04 09:09:02;;;;;;;;;;;16.70;60.60;;;;;;5051706;28;75091;-70
2021/05/04 09:16:52;;;;;;;;;;;17.20;59.10;;;;;;5046713;27;75157;-69
2021/05/04 09:21:47;;;;;;;;;;;17.60;57.70;;;;;;5048464;28;74703;-69
2021/05/04 09:24:16;;;;;;;;;;;17.80;57.70;;;;;;5050907;27;74599;-68
2021/05/04 09:26:42;;;;;;;;;;;17.90;55.90;;;;;;5047340;28;76986;-68
2021/05/04 09:29:09;;;;;;;;;;;18.10;55.80;;;;;;5049717;28;77146;-69
2021/05/04 09:31:36;;;;;;;;;;;18.30;55.60;;;;;;5051274;27;75366;-69
2021/05/04 09:34:08;;;;;;;;;;;18.40;55.30;;;;;;5049510;28;75071;-69
2021/05/04 09:36:50;;;;;;;;;;;18.50;54.90;;;;;;5049538;28;77320;-70
2021/05/04 09:39:26;;;;;;;;;;;18.60;54.50;;;;;;5050734;28;75431;-69
2021/05/04 09:41:52;;;;;;;;;;;18.70;54.00;;;;;;5050965;27;75925;-70
2021/05/04 09:44:37;;;;;;;;;;;18.60;53.60;;;;;;5051028;28;75270;-69
2021/05/04 09:47:03;;;;;;;;;;;18.60;54.00;;;;;;5049828;28;75998;-69
2021/05/04 09:49:33;;;;;;;;;;;18.70;54.20;;;;;;5049189;28;77175;-69
2021/05/04 09:52:19;;;;;;;;;;;18.70;54.20;;;;;;5050888;28;77308;-71
2021/05/04 09:54:45;;;;;;;;;;;18.80;53.50;;;;;;5050907;28;76728;-70
2021/05/04 09:57:29;;;;;;;;;;;18.90;53.80;;;;;;5052253;28;75172;-68
2021/05/04 09:59:55;;;;;;;;;;;19.10;53.10;;;;;;5050894;28;77287;-70
2021/05/04 10:02:21;;;;;;;;;;;19.30;52.90;;;;;;5050848;28;77018;-69
2021/05/04 10:04:47;;;;;;;;;;;19.50;52.60;;;;;;5050426;28;76150;-69
2021/05/04 10:07:13;;;;;;;;;;;19.80;49.90;;;;;;5052286;28;75481;-69
2021/05/04 10:09:39;;;;;;;;;;;19.70;50.10;;;;;;5049844;28;76208;-68
2021/05/04 10:12:05;;;;;;;;;;;19.90;51.10;;;;;;5051384;28;74658;-68
2021/05/04 10:14:34;;;;;;;;;;;20.00;50.40;;;;;;5050706;28;76631;-70
2021/05/04 10:17:00;;;;;;;;;;;20.20;50.60;;;;;;5050247;28;75596;-68
2021/05/04 10:19:26;;;;;;;;;;;20.40;49.00;;;;;;5052342;28;75080;-67
2021/05/04 10:21:52;;;;;;;;;;;20.60;49.30;;;;;;5050650;28;74729;-67
2021/05/04 10:24:18;;;;;;;;;;;20.80;49.00;;;;;;5052336;28;75186;-69
2021/05/04 10:26:45;;;;;;;;;;;21.00;47.90;;;;;;5050613;28;74728;-70
2021/05/04 10:29:10;;;;;;;;;;;21.10;47.80;;;;;;5052276;27;76030;-67
2021/05/04 10:31:38;;;;;;;;;;;21.30;46.50;;;;;;5053820;28;74687;-69
2021/05/04 10:34:23;;;;;;;;;;;21.40;46.80;;;;;;5051808;28;75606;-67
2021/05/04 10:36:48;;;;;;;;;;;21.70;46.60;;;;;;5054194;28;75742;-68
2021/05/04 10:39:31;;;;;;;;;;;22.00;45.80;;;;;;5055780;27;74648;-70
2021/05/04 10:41:58;;;;;;;;;;;22.40;43.50;;;;;;5054300;28;75191;-68
2021/05/04 10:44:24;;;;;;;;;;;22.50;41.80;;;;;;5053904;28;74658;-68
2021/05/04 10:46:50;;;;;;;;;;;22.80;40.70;;;;;;5055376;28;75457;-69
2021/05/04 10:49:16;;;;;;;;;;;23.00;40.90;;;;;;5053909;28;76266;-68
2021/05/04 10:51:43;;;;;;;;;;;23.30;41.60;;;;;;5055704;27;75242;-69
2021/05/04 10:54:09;;;;;;;;;;;23.60;40.60;;;;;;5055768;27;74513;-68
2021/05/04 10:56:45;;;;;;;;;;;24.10;40.20;;;;;;5053290;28;77570;-68
2021/05/04 10:59:13;;;;;;;;;;;24.60;39.60;;;;;;5054155;28;77882;-69
2021/05/04 11:01:39;;;;;;;;;;;25.30;38.50;;;;;;5053743;28;77238;-68
2021/05/04 11:04:06;;;;;;;;;;;25.90;37.20;;;;;;5053930;28;75442;-69
2021/05/04 11:06:31;;;;;;;;;;;26.60;35.60;;;;;;5053469;28;75743;-68
2021/05/04 11:08:58;;;;;;;;;;;27.20;34.90;;;;;;5053654;28;77120;-68
2021/05/04 11:11:37;;;;;;;;;;;27.90;34.10;;;;;;5053840;28;77879;-69
2021/05/04 11:14:04;;;;;;;;;;;28.70;33.00;;;;;;5054171;28;76331;-68
2021/05/04 11:16:44;;;;;;;;;;;29.50;32.00;;;;;;5053260;28;77389;-70
2021/05/04 11:19:11;;;;;;;;;;;30.50;30.70;;;;;;5053575;28;75765;-69
2021/05/04 11:21:44;;;;;;;;;;;31.30;28.20;;;;;;5053788;28;75530;-69
2021/05/04 11:24:14;;;;;;;;;;;31.80;28.70;;;;;;5054788;27;75024;-68
2021/05/04 11:26:46;;;;;;;;;;;32.90;27.90;;;;;;5055159;27;74754;-68
2021/05/04 11:29:14;;;;;;;;;;;33.90;24.80;;;;;;5054351;28;75310;-70
2021/05/04 11:31:52;;;;;;;;;;;34.10;25.80;;;;;;5053421;28;75231;-71
2021/05/04 11:34:37;;;;;;;;;;;35.10;25.20;;;;;;5054075;27;75710;-68
2021/05/04 11:37:04;;;;;;;;;;;35.90;24.30;;;;;;5052401;28;75255;-69
2021/05/04 11:39:30;;;;;;;;;;;37.00;23.60;;;;;;5053731;28;75679;-69
2021/05/04 11:42:00;;;;;;;;;;;37.80;22.90;;;;;;5054154;27;75176;-69
2021/05/04 11:44:30;;;;;;;;;;;37.90;20.40;;;;;;5053281;28;76446;-70
2021/05/04 11:47:16;;;;;;;;;;;37.70;20.70;;;;;;5052832;28;77459;-69
2021/05/04 11:49:41;;;;;;;;;;;38.10;21.20;;;;;;5054426;27;77571;-72
2021/05/04 11:52:08;;;;;;;;;;;39.10;20.50;;;;;;5053182;28;75831;-70
2021/05/04 11:54:34;;;;;;;;;;;40.10;19.50;;;;;;5054623;27;75216;-69
2021/05/04 11:57:00;;;;;;;;;;;40.70;19.50;;;;;;5050787;28;77542;-70
2021/05/04 11:59:27;;;;;;;;;;;41.40;18.80;;;;;;5052205;28;76032;-70
2021/05/04 12:01:53;;;;;;;;;;;41.90;18.70;;;;;;5054413;28;75713;-70
2021/05/04 12:04:19;;;;;;;;;;;42.40;18.10;;;;;;5052201;28;78046;-70
2021/05/04 12:06:46;;;;;;;;;;;42.90;18.00;;;;;;5052416;28;77557;-70
2021/05/04 12:09:12;;;;;;;;;;;43.10;18.10;;;;;;5054306;28;75118;-71
2021/05/04 12:11:38;;;;;;;;;;;43.50;17.70;;;;;;5053827;28;75138;-70
2021/05/04 12:14:03;;;;;;;;;;;43.80;17.90;;;;;;5050230;28;75608;-71
2021/05/04 12:16:29;;;;;;;;;;;43.60;17.40;;;;;;5052796;27;75121;-71
2021/05/04 12:18:55;;;;;;;;;;;43.70;17.60;;;;;;5052269;28;75764;-71
2021/05/04 12:21:21;;;;;;;;;;;43.60;17.30;;;;;;5054129;28;74467;-71
2021/05/04 12:23:46;;;;;;;;;;;43.80;17.70;;;;;;5052615;28;75357;-70
2021/05/04 12:26:15;;;;;;;;;;;44.40;16.40;;;;;;5053921;27;75559;-70
2021/05/04 12:28:47;;;;;;;;;;;44.70;17.20;;;;;;5051966;28;74882;-70
2021/05/04 12:31:17;;;;;;;;;;;44.60;15.80;;;;;;5050920;28;75384;-76
2021/05/04 12:33:47;;;;;;;;;;;44.50;17.10;;;;;;5052603;28;75307;-76
2021/05/04 12:36:16;;;;;;;;;;;44.90;17.40;;;;;;5052600;28;77275;-71
2021/05/04 12:38:55;;;;;;;;;;;45.00;15.70;;;;;;5052420;28;75342;-72
2021/05/04 12:41:23;;;;;;;;;;;44.90;16.60;;;;;;5052550;28;77841;-70
2021/05/04 12:44:04;;;;;;;;;;;45.00;16.00;;;;;;5054105;28;75150;-69
2021/05/04 12:46:33;;;;;;;;;;;45.00;15.90;;;;;;5052329;28;77822;-70
2021/05/04 12:49:00;;;;;;;;;;;45.60;16.30;;;;;;5053919;28;75746;-70
2021/05/04 12:51:27;;;;;;;;;;;46.30;15.80;;;;;;5053927;28;74542;-70
2021/05/04 12:54:03;;;;;;;;;;;47.00;15.70;;;;;;5053357;28;77187;-70
2021/05/04 12:56:30;;;;;;;;;;;47.70;15.70;;;;;;5052151;28;75193;-71
2021/05/04 12:59:09;;;;;;;;;;;48.20;15.90;;;;;;5053843;28;75172;-71
2021/05/04 13:01:43;;;;;;;;;;;47.50;12.50;;;;;;5053519;28;75204;-72
2021/05/04 13:07:32;;;;;;;;;;;46.60;15.50;;;;;;5050835;28;74761;-69
2021/05/04 13:10:27;;;;;;;;;;;46.90;12.80;;;;;;5049630;28;74603;-71
2021/05/04 13:28:17;;;;;;;;;;;47.00;14.60;;;;;;5050517;28;75015;-71
2021/05/04 13:30:01;;;;;;;;;;;48.70;13.90;;;;;;5053801;28;74443;-70
2021/05/04 13:32:27;;;;;;;;;;;49.50;13.80;;;;;;5051627;28;77240;-69
2021/05/04 13:37:22;;;;;;;;;;;47.90;14.90;;;;;;5051648;28;74969;-69
2021/05/04 13:50:19;;;;;;;;;;;46.30;14.70;;;;;;5050080;28;74936;-69
2021/05/04 13:52:45;;;;;;;;;;;45.00;15.90;;;;;;5051503;28;75524;-69
2021/05/04 13:55:13;;;;;;;;;;;45.90;12.90;;;;;;5053127;28;75482;-69
2021/05/04 13:57:39;;;;;;;;;;;46.90;13.90;;;;;;5051388;28;76673;-70
2021/05/04 14:00:06;;;;;;;;;;;47.80;14.10;;;;;;5053101;27;74642;-71
2021/05/04 14:07:50;;;;;;;;;;;50.00;12.90;;;;;;5049896;28;74389;-70
2021/05/04 14:26:49;;;;;;;;;;;50.70;12.90;;;;;;5053330;28;74754;-70
2021/05/04 14:29:15;;;;;;;;;;;50.40;12.70;;;;;;5052548;27;75220;-70
2021/05/04 14:31:41;;;;;;;;;;;50.50;13.00;;;;;;5051179;28;76297;-69
2021/05/04 14:34:07;;;;;;;;;;;50.90;13.30;;;;;;5052461;28;75817;-68
2021/05/04 14:39:32;;;;;;;;;;;50.70;11.30;;;;;;5050150;28;74533;-69
2021/05/04 14:55:41;;;;;;;;;;;48.80;12.50;;;;;;5052500;28;74913;-68
2021/05/04 15:00:49;;;;;;;;;;;46.40;13.40;;;;;;5048905;28;75174;-69
2021/05/04 15:03:14;;;;;;;;;;;44.40;13.20;;;;;;5050220;28;77530;-67
2021/05/04 15:05:40;;;;;;;;;;;42.70;13.70;;;;;;5052279;27;74871;-69
2021/05/04 15:08:06;;;;;;;;;;;40.00;14.70;;;;;;5050247;28;77004;-68
2021/05/04 15:10:31;;;;;;;;;;;38.20;16.20;;;;;;5052107;28;75071;-69
2021/05/04 15:13:03;;;;;;;;;;;37.50;16.70;;;;;;5050859;28;74413;-68
2021/05/04 15:23:12;;;;;;;;;;;35.40;18.00;;;;;;5055931;28;74792;-69
2021/05/04 15:25:38;;;;;;;;;;;35.30;18.20;;;;;;5053949;28;77471;-69
2021/05/04 15:28:03;;;;;;;;;;;34.90;18.70;;;;;;5053829;28;76517;-69
2021/05/04 15:30:29;;;;;;;;;;;34.20;18.90;;;;;;5053580;28;77796;-67
2021/05/04 15:33:03;;;;;;;;;;;33.50;19.30;;;;;;5053650;28;76114;-70
2021/05/04 15:35:33;;;;;;;;;;;32.90;19.20;;;;;;5055773;28;75775;-67
2021/05/04 15:38:03;;;;;;;;;;;31.90;19.90;;;;;;5055094;28;75802;-70
2021/05/04 15:40:29;;;;;;;;;;;30.90;20.10;;;;;;5053804;28;76258;-70
2021/05/04 15:42:55;;;;;;;;;;;30.70;20.40;;;;;;5053622;28;76115;-70